Eckerty, Indiana
Current Conditions -  °F | °C
As of 12:15 PM on Monday 22 Dec 2014 (Local Time) from KHNB Reporting Station
Overcast Overcast  
Wind Chill:   Ceiling: 2000
Heat Index:   Visibility: 10mi
Dew Point:   Wind: 8mph
Humidity: 76%   Direction: 140°SE
Pressure: 29.86"   Gusts: NA
Location:  38.32°N, 86.61°W
Report Text: KHNB 221715Z AUTO 14007KT 10SM OVC020 09/05 A2986 RMK AO1
Loading
Personal Weather Stations






























Interactive Weather Map New forecast layout! Learn more

10-Day Weather Forecast

Advertisements
Track Severe Weather on mobile